Terminal Aerodrome Forecast
Issued by NWS Jackson, MS

Home | Current Version | Previous Version | Text Only | Print | Product List | Glossary On
Versions: 1 2 3 4 5 6 7 8 9 10 11 12 13 14 15 16 17
587
FTUS44 KJAN 241731
TAFHBG
TAF
KHBG 241731Z 2418/2518 19012G25KT P6SM BKN035
     FM250500 23007KT P6SM VCSH BKN025 OVC050
     FM250800 30011KT P6SM BKN050=

USA.gov is the U.S. government's official web portal to all federal, state and local government web resources and services.